createdAt,value
2023-04-25T00:02:16.122Z,9.10
2023-04-25T00:04:43.575Z,9.50
2023-04-25T00:07:11.542Z,7.30
2023-04-25T00:09:38.464Z,7.30
2023-04-25T00:12:05.527Z,7.40
2023-04-25T00:14:35.138Z,7.40
2023-04-25T00:17:02.113Z,9.10
2023-04-25T00:19:29.456Z,10.10
2023-04-25T00:21:56.678Z,7.40
2023-04-25T00:24:23.502Z,8.60
2023-04-25T00:26:50.285Z,8.50
2023-04-25T00:29:17.381Z,8.00
2023-04-25T00:31:44.248Z,7.40
2023-04-25T00:34:11.137Z,10.00
2023-04-25T00:36:37.939Z,7.20
2023-04-25T00:39:05.698Z,7.10
2023-04-25T00:41:33.069Z,7.10
2023-04-25T00:44:00.346Z,8.80
2023-04-25T00:46:27.171Z,10.10
2023-04-25T00:48:54.112Z,7.40
2023-04-25T00:51:21.577Z,9.20
2023-04-25T00:53:50.326Z,7.50
2023-04-25T00:56:17.545Z,9.50
2023-04-25T00:58:44.420Z,8.50
2023-04-25T01:01:11.955Z,9.50
2023-04-25T01:03:42.114Z,6.80
2023-04-25T01:06:10.413Z,6.80
2023-04-25T01:08:38.657Z,6.80
2023-04-25T01:11:05.929Z,9.60
2023-04-25T01:13:33.448Z,6.80
2023-04-25T01:16:01.061Z,6.80
2023-04-25T01:18:28.071Z,8.90
2023-04-25T01:20:55.627Z,9.60
2023-04-25T01:23:22.897Z,8.20
2023-04-25T01:25:50.757Z,8.00
2023-04-25T01:28:17.747Z,6.70
2023-04-25T01:30:44.639Z,6.70
2023-04-25T01:33:11.516Z,9.00
2023-04-25T01:35:39.092Z,6.80
2023-04-25T01:38:05.978Z,6.80
2023-04-25T01:40:33.593Z,8.50
2023-04-25T01:43:00.510Z,8.80
2023-04-25T01:45:27.576Z,6.80
2023-04-25T01:47:54.758Z,8.60
2023-04-25T01:50:21.941Z,9.50
2023-04-25T01:52:49.630Z,6.70
2023-04-25T01:55:17.056Z,8.40
2023-04-25T01:57:56.912Z,9.20
2023-04-25T02:00:35.274Z,6.60
2023-04-25T02:03:04.076Z,6.50
2023-04-25T02:05:39.777Z,6.50
2023-04-25T02:08:09.470Z,8.40
2023-04-25T02:10:36.504Z,6.40
2023-04-25T02:13:11.019Z,8.50
2023-04-25T02:15:44.287Z,6.20
2023-04-25T02:18:17.496Z,6.20
2023-04-25T02:20:45.185Z,6.10
2023-04-25T02:23:12.061Z,7.10
2023-04-25T02:25:38.949Z,8.80
2023-04-25T02:28:05.808Z,5.90
2023-04-25T02:30:32.995Z,5.80
2023-04-25T02:33:00.411Z,5.80
2023-04-25T02:35:27.361Z,8.30
2023-04-25T02:37:55.053Z,7.90
2023-04-25T02:40:21.955Z,5.70
2023-04-25T02:42:48.848Z,5.60
2023-04-25T02:45:15.925Z,8.10
2023-04-25T02:47:42.875Z,5.60
2023-04-25T02:50:10.069Z,5.50
2023-04-25T02:52:37.538Z,5.50
2023-04-25T02:55:14.104Z,5.60
2023-04-25T02:57:41.366Z,7.80
2023-04-25T03:00:13.140Z,7.30
2023-04-25T03:02:40.058Z,5.50
2023-04-25T03:05:07.218Z,7.90
2023-04-25T03:07:35.668Z,5.50
2023-04-25T03:10:03.260Z,6.30
2023-04-25T03:12:31.971Z,5.50
2023-04-25T03:14:58.878Z,7.50
2023-04-25T03:17:25.872Z,5.40
2023-04-25T03:19:52.826Z,5.40
2023-04-25T03:22:19.716Z,6.50
2023-04-25T03:24:46.706Z,6.60
2023-04-25T03:27:14.731Z,5.40
2023-04-25T03:29:41.887Z,7.30
2023-04-25T03:32:09.940Z,7.40
2023-04-25T03:34:36.845Z,8.10
2023-04-25T03:37:03.860Z,5.40
2023-04-25T03:39:35.704Z,7.80
2023-04-25T03:42:03.953Z,7.30
2023-04-25T03:44:31.510Z,5.40
2023-04-25T03:46:59.982Z,5.30
2023-04-25T03:49:27.175Z,7.00
2023-04-25T03:51:58.659Z,5.40
2023-04-25T03:54:26.067Z,5.40
2023-04-25T03:57:03.427Z,5.40
2023-04-25T03:59:33.683Z,5.50
2023-04-25T04:02:01.071Z,5.40
2023-04-25T04:04:29.429Z,8.30
2023-04-25T04:06:57.404Z,6.50
2023-04-25T04:09:30.081Z,6.50
2023-04-25T04:11:59.477Z,5.40
2023-04-25T04:14:26.668Z,7.10
2023-04-25T04:16:55.139Z,5.50
2023-04-25T04:19:23.856Z,5.50
2023-04-25T04:22:00.004Z,5.50
2023-04-25T04:24:27.182Z,5.50
2023-04-25T04:27:01.109Z,5.60
2023-04-25T04:29:37.874Z,5.60
2023-04-25T04:32:37.820Z,8.50
2023-04-25T04:35:07.687Z,5.70
2023-04-25T04:37:35.494Z,5.70
2023-04-25T04:40:11.073Z,5.90
2023-04-25T04:42:51.858Z,5.80
2023-04-25T04:45:32.389Z,5.80
2023-04-25T04:48:29.374Z,6.80
2023-04-25T04:51:15.532Z,5.90
2023-04-25T04:53:54.716Z,6.00
2023-04-25T04:56:51.226Z,6.00
2023-04-25T04:59:36.681Z,6.00
2023-04-25T05:02:26.905Z,7.90
2023-04-25T05:05:14.000Z,6.10
2023-04-25T05:08:10.110Z,9.10
2023-04-25T05:10:57.973Z,6.10
2023-04-25T05:13:43.476Z,6.00
2023-04-25T05:16:21.966Z,6.00
2023-04-25T05:18:57.690Z,6.00
2023-04-25T05:21:33.243Z,8.30
2023-04-25T05:24:10.582Z,7.70
2023-04-25T05:26:56.056Z,6.40
2023-04-25T05:29:41.716Z,8.80
2023-04-25T05:32:18.174Z,6.40
2023-04-25T05:34:47.816Z,5.90
2023-04-25T05:37:23.326Z,8.60
2023-04-25T05:40:06.851Z,5.90
2023-04-25T05:42:52.705Z,5.90
2023-04-25T05:45:38.268Z,8.30
2023-04-25T05:48:05.186Z,5.90
2023-04-25T05:50:52.505Z,6.00
2023-04-25T05:53:37.661Z,6.00
2023-04-25T05:56:05.406Z,7.30
2023-04-25T05:58:32.341Z,6.20
2023-04-25T06:01:00.542Z,8.60
2023-04-25T06:03:28.181Z,7.40
2023-04-25T06:05:58.022Z,8.80
2023-04-25T06:08:26.321Z,6.20
2023-04-25T06:10:53.222Z,6.20
2023-04-25T06:13:20.144Z,6.20
2023-04-25T06:15:47.287Z,6.30
2023-04-25T06:18:14.197Z,6.30
2023-04-25T06:20:41.404Z,6.30
2023-04-25T06:23:08.286Z,6.40
2023-04-25T06:25:49.060Z,6.30
2023-04-25T06:28:16.025Z,9.00
2023-04-25T06:30:45.010Z,8.80
2023-04-25T06:33:17.879Z,6.30
2023-04-25T06:35:44.972Z,6.30
2023-04-25T06:38:14.216Z,7.20
2023-04-25T06:40:45.762Z,6.90
2023-04-25T06:43:12.932Z,5.10
2023-04-25T06:45:55.537Z,8.50
2023-04-25T06:48:23.965Z,7.20
2023-04-25T06:50:54.955Z,8.70
2023-04-25T06:53:21.917Z,6.40
2023-04-25T06:55:55.687Z,6.50
2023-04-25T06:58:23.889Z,6.40
2023-04-25T07:01:00.782Z,6.50
2023-04-25T07:03:28.564Z,7.70
2023-04-25T07:06:00.133Z,6.60
2023-04-25T07:08:27.261Z,6.50
2023-04-25T07:10:54.178Z,7.40
2023-04-25T07:13:21.235Z,9.50
2023-04-25T07:15:49.218Z,6.60
2023-04-25T07:18:18.023Z,8.20
2023-04-25T07:20:45.170Z,8.70
2023-04-25T07:23:12.981Z,6.70
2023-04-25T07:25:40.456Z,7.90
2023-04-25T07:28:08.209Z,7.40
2023-04-25T07:30:38.137Z,6.80
2023-04-25T07:33:05.486Z,6.80
2023-04-25T07:35:32.545Z,6.80
2023-04-25T07:38:00.313Z,8.80
2023-04-25T07:40:27.283Z,6.90
2023-04-25T07:43:00.124Z,7.30
2023-04-25T07:45:34.343Z,7.00
2023-04-25T07:48:24.749Z,7.90
2023-04-25T07:50:58.356Z,7.10
2023-04-25T07:53:48.315Z,9.30
2023-04-25T07:56:23.546Z,7.20
2023-04-25T07:58:53.383Z,9.40
2023-04-25T08:01:22.666Z,8.10
2023-04-25T08:03:57.590Z,8.40
2023-04-25T08:06:34.702Z,7.40
2023-04-25T08:09:09.744Z,7.80
2023-04-25T08:11:39.663Z,7.50
2023-04-25T08:14:09.314Z,7.50
2023-04-25T08:16:37.688Z,8.90
2023-04-25T08:19:04.629Z,8.70
2023-04-25T08:21:32.463Z,7.60
2023-04-25T08:24:02.607Z,9.00
2023-04-25T08:26:43.838Z,7.70
2023-04-25T08:29:17.271Z,7.80
2023-04-25T08:31:45.979Z,8.00
2023-04-25T08:34:14.350Z,8.00
2023-04-25T08:36:48.400Z,10.10
2023-04-25T08:39:34.763Z,10.30
2023-04-25T08:42:32.453Z,8.30
2023-04-25T08:45:00.321Z,8.30
2023-04-25T08:47:32.388Z,8.40
2023-04-25T08:49:59.979Z,8.80
2023-04-25T08:52:30.817Z,9.90
2023-04-25T08:54:58.351Z,8.40
2023-04-25T08:57:33.403Z,10.20
2023-04-25T09:00:03.832Z,8.30
2023-04-25T09:02:34.577Z,9.80
2023-04-25T09:05:03.742Z,10.50
2023-04-25T09:07:30.994Z,8.40
2023-04-25T09:09:58.057Z,8.50
2023-04-25T09:12:26.547Z,8.50
2023-04-25T09:15:23.097Z,10.00
2023-04-25T09:18:09.066Z,10.80
2023-04-25T09:21:00.140Z,10.30
2023-04-25T09:23:29.405Z,9.30
2023-04-25T09:25:56.701Z,11.00
2023-04-25T09:28:29.334Z,9.30
2023-04-25T09:30:58.925Z,9.40
2023-04-25T09:33:38.172Z,10.60
2023-04-25T09:36:12.108Z,10.30
2023-04-25T09:39:02.465Z,9.30
2023-04-25T09:41:33.637Z,9.30
2023-04-25T09:44:15.230Z,11.30
2023-04-25T09:46:45.446Z,9.30
2023-04-25T09:49:18.342Z,10.00
2023-04-25T09:52:18.940Z,11.80
2023-04-25T09:55:12.427Z,11.40
2023-04-25T09:57:42.254Z,9.70
2023-04-25T10:00:14.041Z,11.20
2023-04-25T10:02:43.919Z,9.90
2023-04-25T10:05:17.083Z,10.40
2023-04-25T10:07:44.144Z,9.90
2023-04-25T10:10:17.278Z,10.20
2023-04-25T10:12:45.332Z,10.20
2023-04-25T10:15:12.312Z,10.20
2023-04-25T10:17:40.912Z,10.00
2023-04-25T10:20:11.810Z,10.00
2023-04-25T10:22:46.190Z,9.90
2023-04-25T10:25:13.279Z,10.50
2023-04-25T10:27:40.627Z,10.80
2023-04-25T10:30:13.512Z,10.50
2023-04-25T10:32:40.566Z,10.80
2023-04-25T10:35:13.798Z,12.10
2023-04-25T10:37:57.445Z,11.10
2023-04-25T10:40:24.422Z,11.10
2023-04-25T10:42:57.096Z,11.00
2023-04-25T10:45:24.212Z,10.90
2023-04-25T10:47:51.121Z,10.90
2023-04-25T10:50:18.148Z,11.00
2023-04-25T10:52:47.779Z,11.10
2023-04-25T10:55:14.653Z,11.00
2023-04-25T10:57:43.051Z,10.80
2023-04-25T11:00:16.621Z,10.40
2023-04-25T11:02:49.520Z,10.00
2023-04-25T11:05:55.160Z,9.60
2023-04-25T11:08:36.493Z,9.40
2023-04-25T11:11:03.495Z,9.50
2023-04-25T11:13:31.637Z,9.10
2023-04-25T11:16:07.229Z,9.80
2023-04-25T11:18:45.106Z,8.70
2023-04-25T11:21:12.481Z,8.60
2023-04-25T11:23:39.460Z,10.40
2023-04-25T11:26:06.422Z,8.70
2023-04-25T11:28:33.347Z,8.90
2023-04-25T11:31:00.421Z,9.10
2023-04-25T11:33:28.510Z,10.10
2023-04-25T11:35:56.685Z,9.20
2023-04-25T11:38:28.741Z,9.30
2023-04-25T11:40:56.423Z,9.60
2023-04-25T11:43:23.741Z,10.20
2023-04-25T11:45:52.140Z,9.30
2023-04-25T11:48:20.569Z,12.00
2023-04-25T11:51:00.856Z,9.70
2023-04-25T11:53:36.363Z,9.60
2023-04-25T11:56:12.275Z,9.90
2023-04-25T11:58:58.559Z,10.10
2023-04-25T12:01:36.109Z,10.50
2023-04-25T12:04:15.597Z,10.60
2023-04-25T12:06:44.020Z,10.80
2023-04-25T12:09:12.337Z,9.60
2023-04-25T12:11:44.233Z,12.50
2023-04-25T12:14:21.586Z,11.00
2023-04-25T12:16:49.134Z,11.10
2023-04-25T12:19:19.586Z,11.10
2023-04-25T12:21:57.236Z,11.10
2023-04-25T12:24:26.906Z,11.20
2023-04-25T12:27:17.231Z,11.60
2023-04-25T12:29:55.222Z,11.10
2023-04-25T12:32:22.093Z,10.60
2023-04-25T12:34:48.957Z,13.10
2023-04-25T12:37:16.448Z,10.60
2023-04-25T12:39:43.325Z,11.10
2023-04-25T12:42:13.563Z,10.40
2023-04-25T12:44:41.751Z,12.50
2023-04-25T12:47:08.876Z,10.40
2023-04-25T12:49:35.970Z,11.80
2023-04-25T12:52:11.030Z,12.80
2023-04-25T12:54:47.674Z,10.80
2023-04-25T12:57:16.952Z,10.90
2023-04-25T12:59:43.809Z,11.10
2023-04-25T13:02:10.732Z,11.30
2023-04-25T13:04:37.743Z,14.40
2023-04-25T13:07:04.644Z,11.80
2023-04-25T13:09:31.478Z,12.00
2023-04-25T13:11:59.373Z,12.20
2023-04-25T13:14:26.421Z,11.90
2023-04-25T13:16:53.362Z,11.80
2023-04-25T13:19:20.191Z,11.70
2023-04-25T13:21:47.127Z,12.40
2023-04-25T13:24:13.962Z,12.80
2023-04-25T13:26:41.066Z,13.00
2023-04-25T13:29:07.953Z,10.90
2023-04-25T13:31:34.819Z,11.70
2023-04-25T13:34:01.688Z,10.30
2023-04-25T13:36:28.986Z,12.40
2023-04-25T13:38:55.962Z,12.30
2023-04-25T13:41:22.990Z,12.00
2023-04-25T13:43:50.089Z,11.10
2023-04-25T13:46:35.569Z,11.30
2023-04-25T13:49:12.252Z,9.60
2023-04-25T13:51:40.535Z,9.60
2023-04-25T13:54:07.470Z,11.00
2023-04-25T13:56:34.428Z,10.90
2023-04-25T13:59:01.220Z,11.10
2023-04-25T14:01:29.104Z,10.10
2023-04-25T14:03:56.157Z,11.10
2023-04-25T14:06:25.024Z,10.90
2023-04-25T14:08:51.972Z,11.40
2023-04-25T14:11:21.819Z,11.10
2023-04-25T14:13:50.465Z,12.70
2023-04-25T14:16:17.955Z,10.30
2023-04-25T14:18:44.924Z,10.40
2023-04-25T14:21:11.820Z,11.80
2023-04-25T14:23:38.680Z,13.20
2023-04-25T14:26:06.335Z,12.00
2023-04-25T14:28:33.410Z,10.70
2023-04-25T14:31:01.332Z,10.60
2023-04-25T14:33:28.235Z,10.60
2023-04-25T14:35:55.549Z,10.60
2023-04-25T14:38:24.324Z,13.00
2023-04-25T14:40:51.451Z,12.70
2023-04-25T14:43:18.623Z,10.40
2023-04-25T14:45:46.001Z,10.90
2023-04-25T14:48:12.964Z,10.30
2023-04-25T14:50:39.973Z,12.20
2023-04-25T14:53:06.874Z,12.10
2023-04-25T14:55:33.696Z,11.60
2023-04-25T14:58:00.871Z,11.90
2023-04-25T15:00:27.752Z,9.70
2023-04-25T15:02:54.790Z,12.10
2023-04-25T15:05:21.802Z,9.40
2023-04-25T15:07:49.034Z,10.30
2023-04-25T15:10:17.278Z,9.10
2023-04-25T15:12:46.925Z,10.50
2023-04-25T15:15:22.592Z,9.00
2023-04-25T15:17:53.262Z,8.90
2023-04-25T15:20:20.267Z,9.90
2023-04-25T15:22:47.136Z,10.80
2023-04-25T15:25:14.036Z,8.80
2023-04-25T15:27:45.144Z,8.90
2023-04-25T15:30:13.890Z,11.00
2023-04-25T15:32:41.091Z,9.00
2023-04-25T15:35:17.407Z,11.30
2023-04-25T15:37:48.214Z,9.20
2023-04-25T15:40:16.011Z,10.60
2023-04-25T15:42:44.564Z,9.60
2023-04-25T15:45:12.158Z,12.40
2023-04-25T15:47:39.253Z,11.20
2023-04-25T15:50:07.309Z,12.70
2023-04-25T15:52:34.568Z,11.90
2023-04-25T15:55:01.580Z,12.70
2023-04-25T15:57:28.477Z,12.60
2023-04-25T15:59:56.548Z,11.30
2023-04-25T16:02:23.521Z,11.80
2023-04-25T16:04:50.640Z,12.70
2023-04-25T16:07:18.123Z,13.30
2023-04-25T16:09:45.484Z,14.00
2023-04-25T16:12:12.438Z,14.30
2023-04-25T16:14:39.332Z,14.30
2023-04-25T16:17:06.266Z,13.80
2023-04-25T16:19:33.208Z,13.40
2023-04-25T16:22:00.136Z,13.00
2023-04-25T16:24:26.977Z,12.50
2023-04-25T16:26:53.856Z,12.20
2023-04-25T16:29:21.077Z,12.40
2023-04-25T16:31:48.301Z,11.40
2023-04-25T16:34:15.495Z,11.10
2023-04-25T16:36:42.351Z,12.50
2023-04-25T16:39:09.690Z,11.20
2023-04-25T16:41:37.164Z,11.90
2023-04-25T16:44:06.700Z,11.30
2023-04-25T16:46:33.717Z,12.40
2023-04-25T16:49:01.769Z,12.40
2023-04-25T16:51:29.060Z,9.70
2023-04-25T16:53:56.213Z,9.60
2023-04-25T16:56:23.340Z,9.50
2023-04-25T16:58:50.739Z,11.90
2023-04-25T17:01:20.126Z,11.20
2023-04-25T17:03:55.050Z,11.30
2023-04-25T17:06:25.028Z,9.10
2023-04-25T17:08:52.120Z,11.00
2023-04-25T17:11:20.313Z,9.00
2023-04-25T17:13:47.378Z,9.00
2023-04-25T17:16:17.659Z,9.00
2023-04-25T17:18:44.529Z,8.90
2023-04-25T17:21:11.504Z,11.00
2023-04-25T17:23:44.846Z,8.50
2023-04-25T17:26:12.881Z,10.60
2023-04-25T17:28:41.878Z,9.40
2023-04-25T17:31:09.811Z,8.10
2023-04-25T17:33:36.744Z,8.00
2023-04-25T17:36:04.362Z,9.50
2023-04-25T17:38:32.206Z,7.90
2023-04-25T17:40:59.150Z,9.00
2023-04-25T17:43:27.722Z,10.00
2023-04-25T17:45:54.812Z,9.70
2023-04-25T17:48:24.929Z,9.90
2023-04-25T17:50:52.029Z,9.70
2023-04-25T17:53:18.883Z,8.70
2023-04-25T17:55:45.920Z,7.50
2023-04-25T17:58:13.045Z,8.70
2023-04-25T18:00:39.962Z,7.50
2023-04-25T18:03:07.661Z,7.40
2023-04-25T18:05:34.746Z,7.80
2023-04-25T18:08:01.693Z,7.40
2023-04-25T18:10:28.597Z,10.40
2023-04-25T18:12:55.563Z,7.30
2023-04-25T18:15:23.072Z,9.40
2023-04-25T18:17:50.119Z,7.30
2023-04-25T18:20:18.418Z,7.30
2023-04-25T18:22:45.621Z,7.30
2023-04-25T18:25:13.735Z,9.50
2023-04-25T18:27:40.939Z,9.70
2023-04-25T18:30:11.813Z,7.30
2023-04-25T18:32:38.938Z,7.20
2023-04-25T18:35:06.308Z,7.20
2023-04-25T18:37:33.358Z,7.20
2023-04-25T18:40:05.472Z,7.20
2023-04-25T18:42:33.174Z,7.20
2023-04-25T18:45:00.046Z,9.90
2023-04-25T18:47:26.965Z,9.90
2023-04-25T18:49:53.857Z,8.20
2023-04-25T18:52:20.980Z,9.10
2023-04-25T18:54:48.151Z,9.20
2023-04-25T18:57:18.034Z,6.20
2023-04-25T18:59:46.186Z,9.10
2023-04-25T19:02:16.032Z,8.40
2023-04-25T19:04:43.821Z,8.90
2023-04-25T19:07:10.915Z,9.40
2023-04-25T19:09:37.778Z,9.40
2023-04-25T19:12:05.099Z,7.20
2023-04-25T19:14:32.490Z,7.20
2023-04-25T19:17:00.204Z,7.60
2023-04-25T19:19:27.568Z,8.60
2023-04-25T19:21:54.562Z,7.00
2023-04-25T19:24:21.508Z,7.50
2023-04-25T19:26:48.971Z,8.60
2023-04-25T19:29:16.547Z,7.00
2023-04-25T19:31:44.551Z,9.20
2023-04-25T19:34:11.596Z,9.00
2023-04-25T19:36:39.042Z,7.10
2023-04-25T19:39:07.375Z,9.20
2023-04-25T19:41:38.977Z,7.60
2023-04-25T19:44:07.452Z,7.50
2023-04-25T19:46:34.861Z,8.90
2023-04-25T19:49:01.934Z,7.00
2023-04-25T19:51:29.178Z,7.00
2023-04-25T19:53:56.178Z,7.00
2023-04-25T19:56:23.586Z,7.00
2023-04-25T19:58:51.200Z,7.00
2023-04-25T20:01:18.678Z,7.00
2023-04-25T20:03:48.302Z,6.90
2023-04-25T20:06:15.218Z,7.00
2023-04-25T20:08:42.043Z,6.90
2023-04-25T20:11:10.706Z,6.80
2023-04-25T20:13:37.794Z,6.80
2023-04-25T20:16:08.847Z,6.80
2023-04-25T20:18:36.246Z,6.80
2023-04-25T20:21:03.526Z,7.90
2023-04-25T20:23:30.488Z,6.70
2023-04-25T20:25:57.498Z,6.70
2023-04-25T20:28:24.424Z,9.00
2023-04-25T20:30:51.601Z,6.70
2023-04-25T20:33:18.569Z,6.70
2023-04-25T20:35:46.260Z,6.70
2023-04-25T20:38:13.177Z,8.70
2023-04-25T20:40:40.141Z,6.60
2023-04-25T20:43:06.999Z,6.90
2023-04-25T20:45:34.574Z,6.60
2023-04-25T20:48:02.777Z,6.50
2023-04-25T20:50:29.749Z,6.50
2023-04-25T20:52:57.327Z,6.50
2023-04-25T20:55:24.352Z,8.50
2023-04-25T20:57:52.137Z,6.40
2023-04-25T21:00:26.837Z,6.60
2023-04-25T21:02:54.601Z,6.40
2023-04-25T21:05:24.707Z,6.40
2023-04-25T21:07:54.475Z,7.30
2023-04-25T21:10:21.338Z,7.70
2023-04-25T21:12:49.676Z,6.90
2023-04-25T21:15:18.190Z,5.60
2023-04-25T21:17:47.560Z,7.70
2023-04-25T21:20:19.136Z,6.20
2023-04-25T21:22:51.185Z,6.20
2023-04-25T21:25:24.151Z,6.20
2023-04-25T21:27:52.444Z,6.10
2023-04-25T21:30:22.910Z,6.40
2023-04-25T21:32:53.273Z,6.00
2023-04-25T21:35:20.870Z,6.00
2023-04-25T21:37:47.819Z,5.90
2023-04-25T21:40:15.102Z,7.00
2023-04-25T21:42:46.015Z,5.80
2023-04-25T21:45:12.910Z,5.80
2023-04-25T21:47:39.887Z,5.80
2023-04-25T21:50:07.800Z,5.80
2023-04-25T21:52:36.161Z,5.80
2023-04-25T21:55:03.254Z,6.70
2023-04-25T21:57:30.201Z,5.60
2023-04-25T21:59:57.145Z,5.60
2023-04-25T22:02:24.771Z,6.70
2023-04-25T22:04:52.461Z,7.10
2023-04-25T22:07:19.556Z,7.80
2023-04-25T22:09:54.275Z,5.40
2023-04-25T22:12:23.288Z,5.40
2023-04-25T22:14:50.599Z,6.40
2023-04-25T22:17:17.963Z,8.40
2023-04-25T22:19:45.216Z,5.30
2023-04-25T22:22:12.036Z,7.20
2023-04-25T22:24:39.300Z,5.20
2023-04-25T22:27:06.571Z,5.20
2023-04-25T22:29:34.134Z,5.20
2023-04-25T22:32:01.771Z,5.10
2023-04-25T22:34:28.810Z,7.80
2023-04-25T22:36:55.676Z,6.30
2023-04-25T22:39:23.246Z,5.00
2023-04-25T22:41:50.181Z,5.00
2023-04-25T22:44:17.778Z,5.00
2023-04-25T22:46:44.649Z,6.40
2023-04-25T22:49:12.021Z,8.10
2023-04-25T22:51:38.924Z,5.00
2023-04-25T22:54:05.953Z,6.70
2023-04-25T22:56:32.803Z,5.00
2023-04-25T22:58:59.742Z,5.00
2023-04-25T23:01:28.085Z,5.00
2023-04-25T23:03:55.272Z,2.60
2023-04-25T23:06:22.879Z,5.00
2023-04-25T23:08:50.378Z,5.00
2023-04-25T23:11:17.436Z,5.00
2023-04-25T23:13:44.311Z,5.40
2023-04-25T23:16:11.277Z,5.00
2023-04-25T23:18:39.214Z,7.00
2023-04-25T23:21:10.147Z,5.00
2023-04-25T23:23:37.073Z,7.70
2023-04-25T23:26:08.444Z,6.60
2023-04-25T23:28:35.286Z,4.90
2023-04-25T23:31:06.194Z,4.90
2023-04-25T23:33:33.124Z,4.90
2023-04-25T23:36:00.170Z,4.90
2023-04-25T23:38:27.628Z,6.40
2023-04-25T23:40:54.480Z,4.90
2023-04-25T23:43:21.416Z,4.90
2023-04-25T23:45:48.320Z,7.40
2023-04-25T23:48:15.613Z,4.90
2023-04-25T23:50:42.660Z,7.10
2023-04-25T23:53:09.869Z,7.50
2023-04-25T23:55:36.748Z,6.60
2023-04-25T23:58:03.801Z,7.50
